sensor_id;sensor_type;location;lat;lon;timestamp;temperature;humidity
29571;DHT22;16814;52.118;11.436;2024-02-21T00:00:46;7.90;99.90
29571;DHT22;16814;52.118;11.436;2024-02-21T00:03:12;7.90;99.90
29571;DHT22;16814;52.118;11.436;2024-02-21T00:05:37;8.00;99.90
29571;DHT22;16814;52.118;11.436;2024-02-21T00:08:03;8.00;99.90
29571;DHT22;16814;52.118;11.436;2024-02-21T00:10:29;8.00;99.90
29571;DHT22;16814;52.118;11.436;2024-02-21T00:12:57;8.00;99.90
29571;DHT22;16814;52.118;11.436;2024-02-21T00:15:22;8.10;99.90
29571;DHT22;16814;52.118;11.436;2024-02-21T00:17:48;8.10;99.90
29571;DHT22;16814;52.118;11.436;2024-02-21T00:20:14;8.20;99.90
29571;DHT22;16814;52.118;11.436;2024-02-21T00:22:40;8.20;99.90
29571;DHT22;16814;52.118;11.436;2024-02-21T00:25:05;8.20;99.90
29571;DHT22;16814;52.118;11.436;2024-02-21T00:27:31;8.10;99.90
29571;DHT22;16814;52.118;11.436;2024-02-21T00:29:57;8.00;99.90
29571;DHT22;16814;52.118;11.436;2024-02-21T00:32:23;8.10;99.90
29571;DHT22;16814;52.118;11.436;2024-02-21T00:34:48;8.10;99.90
29571;DHT22;16814;52.118;11.436;2024-02-21T00:37:14;8.10;99.90
29571;DHT22;16814;52.118;11.436;2024-02-21T00:39:39;8.10;99.90
29571;DHT22;16814;52.118;11.436;2024-02-21T00:42:05;8.10;99.90
29571;DHT22;16814;52.118;11.436;2024-02-21T00:44:32;8.20;99.90
29571;DHT22;16814;52.118;11.436;2024-02-21T00:46:58;8.10;99.90
29571;DHT22;16814;52.118;11.436;2024-02-21T00:49:23;8.10;99.90
29571;DHT22;16814;52.118;11.436;2024-02-21T00:51:49;8.00;99.90
29571;DHT22;16814;52.118;11.436;2024-02-21T00:54:14;8.10;99.90
29571;DHT22;16814;52.118;11.436;2024-02-21T00:56:40;8.00;99.90
29571;DHT22;16814;52.118;11.436;2024-02-21T00:59:05;8.00;99.90
29571;DHT22;16814;52.118;11.436;2024-02-21T01:01:31;8.00;99.90
29571;DHT22;16814;52.118;11.436;2024-02-21T01:03:56;8.00;99.90
29571;DHT22;16814;52.118;11.436;2024-02-21T01:06:22;8.00;99.90
29571;DHT22;16814;52.118;11.436;2024-02-21T01:08:48;8.00;99.90
29571;DHT22;16814;52.118;11.436;2024-02-21T01:11:15;8.00;99.90
29571;DHT22;16814;52.118;11.436;2024-02-21T01:13:40;8.00;99.90
29571;DHT22;16814;52.118;11.436;2024-02-21T01:16:06;7.90;99.90
29571;DHT22;16814;52.118;11.436;2024-02-21T01:18:37;8.00;99.90
29571;DHT22;16814;52.118;11.436;2024-02-21T01:21:03;8.00;99.90
29571;DHT22;16814;52.118;11.436;2024-02-21T01:23:32;8.00;99.90
29571;DHT22;16814;52.118;11.436;2024-02-21T01:25:58;8.00;99.90
29571;DHT22;16814;52.118;11.436;2024-02-21T01:28:23;8.00;99.90
29571;DHT22;16814;52.118;11.436;2024-02-21T01:30:49;8.00;99.90
29571;DHT22;16814;52.118;11.436;2024-02-21T01:33:14;8.00;99.90
29571;DHT22;16814;52.118;11.436;2024-02-21T01:35:40;8.00;99.90
29571;DHT22;16814;52.118;11.436;2024-02-21T01:38:05;7.90;99.90
29571;DHT22;16814;52.118;11.436;2024-02-21T01:40:31;7.90;99.90
29571;DHT22;16814;52.118;11.436;2024-02-21T01:42:56;7.90;99.90
29571;DHT22;16814;52.118;11.436;2024-02-21T01:45:22;7.90;99.90
29571;DHT22;16814;52.118;11.436;2024-02-21T01:47:49;7.90;99.90
29571;DHT22;16814;52.118;11.436;2024-02-21T01:50:15;7.90;99.90
29571;DHT22;16814;52.118;11.436;2024-02-21T01:52:41;8.00;99.90
29571;DHT22;16814;52.118;11.436;2024-02-21T01:55:10;8.00;99.90
29571;DHT22;16814;52.118;11.436;2024-02-21T01:57:36;8.00;99.90
29571;DHT22;16814;52.118;11.436;2024-02-21T02:00:02;8.10;99.90
29571;DHT22;16814;52.118;11.436;2024-02-21T02:02:28;8.10;99.90
29571;DHT22;16814;52.118;11.436;2024-02-21T02:04:54;8.00;99.90
29571;DHT22;16814;52.118;11.436;2024-02-21T02:07:20;8.00;99.90
29571;DHT22;16814;52.118;11.436;2024-02-21T02:09:45;8.00;99.90
29571;DHT22;16814;52.118;11.436;2024-02-21T02:12:11;8.00;99.90
29571;DHT22;16814;52.118;11.436;2024-02-21T02:14:36;8.00;99.90
29571;DHT22;16814;52.118;11.436;2024-02-21T02:17:02;7.90;99.90
29571;DHT22;16814;52.118;11.436;2024-02-21T02:19:27;7.90;99.90
29571;DHT22;16814;52.118;11.436;2024-02-21T02:21:59;7.90;99.90
29571;DHT22;16814;52.118;11.436;2024-02-21T02:24:25;7.90;99.90
29571;DHT22;16814;52.118;11.436;2024-02-21T02:26:51;7.90;99.90
29571;DHT22;16814;52.118;11.436;2024-02-21T02:29:17;7.90;99.90
29571;DHT22;16814;52.118;11.436;2024-02-21T02:31:43;7.90;99.90
29571;DHT22;16814;52.118;11.436;2024-02-21T02:34:08;7.90;99.90
29571;DHT22;16814;52.118;11.436;2024-02-21T02:36:35;7.90;99.90
29571;DHT22;16814;52.118;11.436;2024-02-21T02:39:01;7.90;99.90
29571;DHT22;16814;52.118;11.436;2024-02-21T02:41:26;7.90;99.90
29571;DHT22;16814;52.118;11.436;2024-02-21T02:43:52;7.90;99.90
29571;DHT22;16814;52.118;11.436;2024-02-21T02:46:17;7.90;99.90
29571;DHT22;16814;52.118;11.436;2024-02-21T02:48:43;7.90;99.90
29571;DHT22;16814;52.118;11.436;2024-02-21T02:51:10;7.90;99.90
29571;DHT22;16814;52.118;11.436;2024-02-21T02:53:35;7.90;99.90
29571;DHT22;16814;52.118;11.436;2024-02-21T02:56:01;7.90;99.90
29571;DHT22;16814;52.118;11.436;2024-02-21T02:58:28;7.90;99.90
29571;DHT22;16814;52.118;11.436;2024-02-21T03:00:53;7.90;99.90
29571;DHT22;16814;52.118;11.436;2024-02-21T03:03:19;7.90;99.90
29571;DHT22;16814;52.118;11.436;2024-02-21T03:05:45;7.90;99.90
29571;DHT22;16814;52.118;11.436;2024-02-21T03:08:11;7.90;99.90
29571;DHT22;16814;52.118;11.436;2024-02-21T03:10:36;7.90;99.90
29571;DHT22;16814;52.118;11.436;2024-02-21T03:13:02;7.90;99.90
29571;DHT22;16814;52.118;11.436;2024-02-21T03:15:28;7.90;99.90
29571;DHT22;16814;52.118;11.436;2024-02-21T03:17:54;8.00;99.90
29571;DHT22;16814;52.118;11.436;2024-02-21T03:20:19;8.00;99.90
29571;DHT22;16814;52.118;11.436;2024-02-21T03:22:45;8.00;99.90
29571;DHT22;16814;52.118;11.436;2024-02-21T03:25:11;8.00;99.90
29571;DHT22;16814;52.118;11.436;2024-02-21T03:27:37;8.00;99.90
29571;DHT22;16814;52.118;11.436;2024-02-21T03:30:03;8.00;99.90
29571;DHT22;16814;52.118;11.436;2024-02-21T03:32:29;8.00;99.90
29571;DHT22;16814;52.118;11.436;2024-02-21T03:34:55;8.00;99.90
29571;DHT22;16814;52.118;11.436;2024-02-21T03:37:21;8.00;99.90
29571;DHT22;16814;52.118;11.436;2024-02-21T03:39:46;8.00;99.90
29571;DHT22;16814;52.118;11.436;2024-02-21T03:42:12;8.00;99.90
29571;DHT22;16814;52.118;11.436;2024-02-21T03:44:37;8.00;99.90
29571;DHT22;16814;52.118;11.436;2024-02-21T03:47:03;8.00;99.90
29571;DHT22;16814;52.118;11.436;2024-02-21T03:49:28;8.10;99.90
29571;DHT22;16814;52.118;11.436;2024-02-21T03:51:54;8.00;99.90
29571;DHT22;16814;52.118;11.436;2024-02-21T03:54:20;8.00;99.90
29571;DHT22;16814;52.118;11.436;2024-02-21T03:56:45;7.90;99.90
29571;DHT22;16814;52.118;11.436;2024-02-21T03:59:13;7.90;99.90
29571;DHT22;16814;52.118;11.436;2024-02-21T04:01:38;7.90;99.90
29571;DHT22;16814;52.118;11.436;2024-02-21T04:04:04;7.90;99.90
29571;DHT22;16814;52.118;11.436;2024-02-21T04:06:29;7.90;99.90
29571;DHT22;16814;52.118;11.436;2024-02-21T04:08:55;7.90;99.90
29571;DHT22;16814;52.118;11.436;2024-02-21T04:11:21;7.90;99.90
29571;DHT22;16814;52.118;11.436;2024-02-21T04:13:46;8.00;99.90
29571;DHT22;16814;52.118;11.436;2024-02-21T04:16:14;8.00;99.90
29571;DHT22;16814;52.118;11.436;2024-02-21T04:18:41;8.00;99.90
29571;DHT22;16814;52.118;11.436;2024-02-21T04:21:06;7.80;99.90
29571;DHT22;16814;52.118;11.436;2024-02-21T04:23:32;7.80;99.90
29571;DHT22;16814;52.118;11.436;2024-02-21T04:25:57;7.80;99.90
29571;DHT22;16814;52.118;11.436;2024-02-21T04:28:23;7.80;99.90
29571;DHT22;16814;52.118;11.436;2024-02-21T04:30:48;7.90;99.90
29571;DHT22;16814;52.118;11.436;2024-02-21T04:33:14;7.90;99.90
29571;DHT22;16814;52.118;11.436;2024-02-21T04:35:39;8.00;99.90
29571;DHT22;16814;52.118;11.436;2024-02-21T04:38:05;7.90;99.90
29571;DHT22;16814;52.118;11.436;2024-02-21T04:40:30;8.00;99.90
29571;DHT22;16814;52.118;11.436;2024-02-21T04:42:57;8.00;99.90
29571;DHT22;16814;52.118;11.436;2024-02-21T04:45:22;7.90;99.90
29571;DHT22;16814;52.118;11.436;2024-02-21T04:47:48;7.90;99.90
29571;DHT22;16814;52.118;11.436;2024-02-21T04:50:13;7.90;99.90
29571;DHT22;16814;52.118;11.436;2024-02-21T04:52:39;7.90;99.90
29571;DHT22;16814;52.118;11.436;2024-02-21T04:55:05;7.80;99.90
29571;DHT22;16814;52.118;11.436;2024-02-21T04:57:31;7.80;99.90
29571;DHT22;16814;52.118;11.436;2024-02-21T04:59:57;7.70;99.90
29571;DHT22;16814;52.118;11.436;2024-02-21T05:02:22;7.70;99.90
29571;DHT22;16814;52.118;11.436;2024-02-21T05:04:49;7.70;99.90
29571;DHT22;16814;52.118;11.436;2024-02-21T05:07:15;7.70;99.90
29571;DHT22;16814;52.118;11.436;2024-02-21T05:09:42;7.70;99.90
29571;DHT22;16814;52.118;11.436;2024-02-21T05:12:08;7.70;99.90
29571;DHT22;16814;52.118;11.436;2024-02-21T05:14:34;7.60;99.90
29571;DHT22;16814;52.118;11.436;2024-02-21T05:16:59;7.60;99.90
29571;DHT22;16814;52.118;11.436;2024-02-21T05:19:25;7.60;99.90
29571;DHT22;16814;52.118;11.436;2024-02-21T05:21:50;7.50;99.90
29571;DHT22;16814;52.118;11.436;2024-02-21T05:24:16;7.40;99.90
29571;DHT22;16814;52.118;11.436;2024-02-21T05:26:41;7.40;99.90
29571;DHT22;16814;52.118;11.436;2024-02-21T05:29:07;7.50;99.90
29571;DHT22;16814;52.118;11.436;2024-02-21T05:34:17;7.50;99.90
29571;DHT22;16814;52.118;11.436;2024-02-21T05:36:43;7.80;99.90
29571;DHT22;16814;52.118;11.436;2024-02-21T05:39:08;7.70;99.90
29571;DHT22;16814;52.118;11.436;2024-02-21T05:41:34;7.70;99.90
29571;DHT22;16814;52.118;11.436;2024-02-21T05:43:59;7.80;99.90
29571;DHT22;16814;52.118;11.436;2024-02-21T05:46:25;7.80;99.90
29571;DHT22;16814;52.118;11.436;2024-02-21T05:48:50;7.80;99.90
29571;DHT22;16814;52.118;11.436;2024-02-21T05:51:16;7.70;99.90
29571;DHT22;16814;52.118;11.436;2024-02-21T05:53:41;7.70;99.90
29571;DHT22;16814;52.118;11.436;2024-02-21T05:56:14;7.70;99.90
29571;DHT22;16814;52.118;11.436;2024-02-21T05:58:40;7.70;99.90
29571;DHT22;16814;52.118;11.436;2024-02-21T06:01:07;7.60;99.90
29571;DHT22;16814;52.118;11.436;2024-02-21T06:03:35;7.70;99.90
29571;DHT22;16814;52.118;11.436;2024-02-21T06:06:04;7.70;99.90
29571;DHT22;16814;52.118;11.436;2024-02-21T06:08:30;7.60;99.90
29571;DHT22;16814;52.118;11.436;2024-02-21T06:10:56;7.60;99.90
29571;DHT22;16814;52.118;11.436;2024-02-21T06:13:23;7.50;99.90
29571;DHT22;16814;52.118;11.436;2024-02-21T06:15:49;7.60;99.90
29571;DHT22;16814;52.118;11.436;2024-02-21T06:18:16;7.70;99.90
29571;DHT22;16814;52.118;11.436;2024-02-21T06:20:42;7.80;99.90
29571;DHT22;16814;52.118;11.436;2024-02-21T06:23:08;7.80;99.90
29571;DHT22;16814;52.118;11.436;2024-02-21T06:25:34;7.80;99.90
29571;DHT22;16814;52.118;11.436;2024-02-21T06:27:59;7.70;99.90
29571;DHT22;16814;52.118;11.436;2024-02-21T06:30:25;7.80;99.90
29571;DHT22;16814;52.118;11.436;2024-02-21T06:32:50;7.70;99.90
29571;DHT22;16814;52.118;11.436;2024-02-21T06:35:16;7.70;99.90
29571;DHT22;16814;52.118;11.436;2024-02-21T06:37:42;7.80;99.90
29571;DHT22;16814;52.118;11.436;2024-02-21T06:40:08;7.80;99.90
29571;DHT22;16814;52.118;11.436;2024-02-21T06:42:33;7.80;99.90
29571;DHT22;16814;52.118;11.436;2024-02-21T06:44:59;7.80;99.90
29571;DHT22;16814;52.118;11.436;2024-02-21T06:47:24;7.80;99.90
29571;DHT22;16814;52.118;11.436;2024-02-21T06:49:50;7.80;99.90
29571;DHT22;16814;52.118;11.436;2024-02-21T06:52:19;7.80;99.90
29571;DHT22;16814;52.118;11.436;2024-02-21T06:54:46;7.80;99.90
29571;DHT22;16814;52.118;11.436;2024-02-21T06:57:13;7.80;99.90
29571;DHT22;16814;52.118;11.436;2024-02-21T06:59:40;7.80;99.90
29571;DHT22;16814;52.118;11.436;2024-02-21T07:02:05;7.80;99.90
29571;DHT22;16814;52.118;11.436;2024-02-21T07:04:31;7.80;99.90
29571;DHT22;16814;52.118;11.436;2024-02-21T07:06:56;7.80;99.90
29571;DHT22;16814;52.118;11.436;2024-02-21T07:09:22;7.90;99.90
29571;DHT22;16814;52.118;11.436;2024-02-21T07:11:47;7.90;99.90
29571;DHT22;16814;52.118;11.436;2024-02-21T07:14:14;7.90;99.90
29571;DHT22;16814;52.118;11.436;2024-02-21T07:16:40;8.00;99.90
29571;DHT22;16814;52.118;11.436;2024-02-21T07:19:06;7.90;99.90
29571;DHT22;16814;52.118;11.436;2024-02-21T07:21:32;8.00;99.90
29571;DHT22;16814;52.118;11.436;2024-02-21T07:23:57;8.10;99.90
29571;DHT22;16814;52.118;11.436;2024-02-21T07:26:23;8.10;99.90
29571;DHT22;16814;52.118;11.436;2024-02-21T07:28:49;8.10;99.90
29571;DHT22;16814;52.118;11.436;2024-02-21T07:31:14;8.20;99.90
29571;DHT22;16814;52.118;11.436;2024-02-21T07:33:40;8.20;99.90
29571;DHT22;16814;52.118;11.436;2024-02-21T07:36:10;8.20;99.90
29571;DHT22;16814;52.118;11.436;2024-02-21T07:38:36;8.30;99.90
29571;DHT22;16814;52.118;11.436;2024-02-21T07:41:02;8.40;99.90
29571;DHT22;16814;52.118;11.436;2024-02-21T07:43:28;8.50;99.90
29571;DHT22;16814;52.118;11.436;2024-02-21T07:45:53;8.60;99.90
29571;DHT22;16814;52.118;11.436;2024-02-21T07:48:19;8.60;99.90
29571;DHT22;16814;52.118;11.436;2024-02-21T07:50:44;8.60;99.90
29571;DHT22;16814;52.118;11.436;2024-02-21T07:53:10;8.60;99.90
29571;DHT22;16814;52.118;11.436;2024-02-21T07:55:36;8.50;99.90
29571;DHT22;16814;52.118;11.436;2024-02-21T07:58:01;8.50;99.90
29571;DHT22;16814;52.118;11.436;2024-02-21T08:00:27;8.50;99.90
29571;DHT22;16814;52.118;11.436;2024-02-21T08:02:52;8.50;99.90
29571;DHT22;16814;52.118;11.436;2024-02-21T08:05:18;8.50;99.90
29571;DHT22;16814;52.118;11.436;2024-02-21T08:07:44;8.50;99.90
29571;DHT22;16814;52.118;11.436;2024-02-21T08:10:09;8.50;99.90
29571;DHT22;16814;52.118;11.436;2024-02-21T08:12:35;8.50;99.90
29571;DHT22;16814;52.118;11.436;2024-02-21T08:15:02;8.50;99.90
29571;DHT22;16814;52.118;11.436;2024-02-21T08:17:29;8.60;99.90
29571;DHT22;16814;52.118;11.436;2024-02-21T08:19:54;8.60;99.90
29571;DHT22;16814;52.118;11.436;2024-02-21T08:22:20;8.70;99.90
29571;DHT22;16814;52.118;11.436;2024-02-21T08:24:45;8.70;99.90
29571;DHT22;16814;52.118;11.436;2024-02-21T08:27:11;8.70;99.90
29571;DHT22;16814;52.118;11.436;2024-02-21T08:29:37;8.70;99.90
29571;DHT22;16814;52.118;11.436;2024-02-21T08:32:02;8.80;99.90
29571;DHT22;16814;52.118;11.436;2024-02-21T08:34:28;8.80;99.90
29571;DHT22;16814;52.118;11.436;2024-02-21T08:36:55;8.90;99.90
29571;DHT22;16814;52.118;11.436;2024-02-21T08:39:21;9.00;99.90
29571;DHT22;16814;52.118;11.436;2024-02-21T08:41:46;9.20;99.90
29571;DHT22;16814;52.118;11.436;2024-02-21T08:44:12;9.30;99.90
29571;DHT22;16814;52.118;11.436;2024-02-21T08:46:37;9.30;99.90
29571;DHT22;16814;52.118;11.436;2024-02-21T08:49:05;9.40;99.90
29571;DHT22;16814;52.118;11.436;2024-02-21T08:51:31;9.40;99.90
29571;DHT22;16814;52.118;11.436;2024-02-21T08:53:57;9.40;99.90
29571;DHT22;16814;52.118;11.436;2024-02-21T08:56:23;9.40;99.90
29571;DHT22;16814;52.118;11.436;2024-02-21T08:58:49;9.40;99.90
29571;DHT22;16814;52.118;11.436;2024-02-21T09:01:15;9.40;99.90
29571;DHT22;16814;52.118;11.436;2024-02-21T09:03:40;9.30;99.90
29571;DHT22;16814;52.118;11.436;2024-02-21T09:06:06;9.30;99.90
29571;DHT22;16814;52.118;11.436;2024-02-21T09:08:33;9.30;99.90
29571;DHT22;16814;52.118;11.436;2024-02-21T09:10:59;9.40;99.90
29571;DHT22;16814;52.118;11.436;2024-02-21T09:13:25;9.40;99.90
29571;DHT22;16814;52.118;11.436;2024-02-21T09:15:51;9.40;99.90
29571;DHT22;16814;52.118;11.436;2024-02-21T09:18:16;9.40;99.90
29571;DHT22;16814;52.118;11.436;2024-02-21T09:20:45;9.40;99.90
29571;DHT22;16814;52.118;11.436;2024-02-21T09:23:11;9.50;99.90
29571;DHT22;16814;52.118;11.436;2024-02-21T09:25:37;9.50;99.90
29571;DHT22;16814;52.118;11.436;2024-02-21T09:28:03;9.50;99.90
29571;DHT22;16814;52.118;11.436;2024-02-21T09:30:29;9.50;99.90
29571;DHT22;16814;52.118;11.436;2024-02-21T09:32:54;9.50;99.90
29571;DHT22;16814;52.118;11.436;2024-02-21T09:35:20;9.60;99.90
29571;DHT22;16814;52.118;11.436;2024-02-21T09:37:48;9.70;99.90
29571;DHT22;16814;52.118;11.436;2024-02-21T09:40:15;9.80;99.90
29571;DHT22;16814;52.118;11.436;2024-02-21T09:42:46;9.90;99.90
29571;DHT22;16814;52.118;11.436;2024-02-21T09:45:20;9.90;99.90
29571;DHT22;16814;52.118;11.436;2024-02-21T09:50:34;9.90;99.90
29571;DHT22;16814;52.118;11.436;2024-02-21T09:53:01;10.00;99.90
29571;DHT22;16814;52.118;11.436;2024-02-21T09:55:31;10.10;99.90
29571;DHT22;16814;52.118;11.436;2024-02-21T09:58:01;10.10;99.90
29571;DHT22;16814;52.118;11.436;2024-02-21T10:00:26;10.10;99.90
29571;DHT22;16814;52.118;11.436;2024-02-21T10:02:53;10.10;99.90
29571;DHT22;16814;52.118;11.436;2024-02-21T10:05:19;10.20;99.90
29571;DHT22;16814;52.118;11.436;2024-02-21T10:07:45;10.20;99.90
29571;DHT22;16814;52.118;11.436;2024-02-21T10:10:11;10.40;99.90
29571;DHT22;16814;52.118;11.436;2024-02-21T10:12:37;10.30;99.90
29571;DHT22;16814;52.118;11.436;2024-02-21T10:15:12;10.40;99.90
29571;DHT22;16814;52.118;11.436;2024-02-21T10:17:38;10.40;99.90
29571;DHT22;16814;52.118;11.436;2024-02-21T10:20:10;10.50;99.90
29571;DHT22;16814;52.118;11.436;2024-02-21T10:22:37;10.60;99.90
29571;DHT22;16814;52.118;11.436;2024-02-21T10:25:12;10.60;99.90
29571;DHT22;16814;52.118;11.436;2024-02-21T10:27:38;10.60;99.90
29571;DHT22;16814;52.118;11.436;2024-02-21T10:30:14;10.50;99.90
29571;DHT22;16814;52.118;11.436;2024-02-21T10:32:53;10.50;99.90
29571;DHT22;16814;52.118;11.436;2024-02-21T10:35:26;10.60;99.90
29571;DHT22;16814;52.118;11.436;2024-02-21T10:37:54;10.80;99.90
29571;DHT22;16814;52.118;11.436;2024-02-21T10:40:26;10.80;99.90
29571;DHT22;16814;52.118;11.436;2024-02-21T10:42:58;10.80;99.90
29571;DHT22;16814;52.118;11.436;2024-02-21T10:45:35;10.90;99.90
29571;DHT22;16814;52.118;11.436;2024-02-21T10:48:15;10.90;99.90
29571;DHT22;16814;52.118;11.436;2024-02-21T10:50:57;11.00;99.90
29571;DHT22;16814;52.118;11.436;2024-02-21T10:53:44;11.10;99.90
29571;DHT22;16814;52.118;11.436;2024-02-21T10:56:26;11.10;99.90
29571;DHT22;16814;52.118;11.436;2024-02-21T10:58:53;11.10;99.90
29571;DHT22;16814;52.118;11.436;2024-02-21T11:01:21;11.10;99.90
29571;DHT22;16814;52.118;11.436;2024-02-21T11:03:49;11.20;99.90
29571;DHT22;16814;52.118;11.436;2024-02-21T11:06:16;11.20;99.90
29571;DHT22;16814;52.118;11.436;2024-02-21T11:08:43;11.20;99.90
29571;DHT22;16814;52.118;11.436;2024-02-21T11:11:12;11.20;99.90
29571;DHT22;16814;52.118;11.436;2024-02-21T11:13:42;11.30;99.90
29571;DHT22;16814;52.118;11.436;2024-02-21T11:16:20;11.30;99.90
29571;DHT22;16814;52.118;11.436;2024-02-21T11:18:46;11.30;99.90
29571;DHT22;16814;52.118;11.436;2024-02-21T11:21:12;11.40;99.90
29571;DHT22;16814;52.118;11.436;2024-02-21T11:23:37;11.40;99.90
29571;DHT22;16814;52.118;11.436;2024-02-21T11:26:10;11.40;99.90
29571;DHT22;16814;52.118;11.436;2024-02-21T11:28:36;11.40;99.90
29571;DHT22;16814;52.118;11.436;2024-02-21T11:31:10;11.30;99.90
29571;DHT22;16814;52.118;11.436;2024-02-21T11:33:39;11.20;99.90
29571;DHT22;16814;52.118;11.436;2024-02-21T11:36:05;11.30;99.90
29571;DHT22;16814;52.118;11.436;2024-02-21T11:38:31;11.30;99.90
29571;DHT22;16814;52.118;11.436;2024-02-21T11:40:56;11.40;99.90
29571;DHT22;16814;52.118;11.436;2024-02-21T11:43:23;11.30;99.90
29571;DHT22;16814;52.118;11.436;2024-02-21T11:45:49;11.30;99.90
29571;DHT22;16814;52.118;11.436;2024-02-21T11:48:14;11.30;99.90
29571;DHT22;16814;52.118;11.436;2024-02-21T11:50:40;11.30;99.90
29571;DHT22;16814;52.118;11.436;2024-02-21T11:53:06;11.30;99.90
29571;DHT22;16814;52.118;11.436;2024-02-21T11:55:31;11.40;99.90
29571;DHT22;16814;52.118;11.436;2024-02-21T11:57:57;11.50;99.90
29571;DHT22;16814;52.118;11.436;2024-02-21T12:00:23;11.60;99.90
29571;DHT22;16814;52.118;11.436;2024-02-21T12:02:51;11.70;99.90
29571;DHT22;16814;52.118;11.436;2024-02-21T12:05:19;11.70;99.90
29571;DHT22;16814;52.118;11.436;2024-02-21T12:07:45;11.60;99.90
29571;DHT22;16814;52.118;11.436;2024-02-21T12:10:12;11.60;99.90
29571;DHT22;16814;52.118;11.436;2024-02-21T12:12:38;11.60;99.90
29571;DHT22;16814;52.118;11.436;2024-02-21T12:15:05;11.60;99.90
29571;DHT22;16814;52.118;11.436;2024-02-21T12:17:35;11.70;99.90
29571;DHT22;16814;52.118;11.436;2024-02-21T12:20:04;11.70;99.90
29571;DHT22;16814;52.118;11.436;2024-02-21T12:22:35;11.80;99.90
29571;DHT22;16814;52.118;11.436;2024-02-21T12:25:16;11.80;99.90
29571;DHT22;16814;52.118;11.436;2024-02-21T12:27:43;11.80;99.90
29571;DHT22;16814;52.118;11.436;2024-02-21T12:30:09;11.80;99.90
29571;DHT22;16814;52.118;11.436;2024-02-21T12:32:35;11.80;99.90
29571;DHT22;16814;52.118;11.436;2024-02-21T12:35:01;11.80;99.90
29571;DHT22;16814;52.118;11.436;2024-02-21T12:37:27;11.80;99.90
29571;DHT22;16814;52.118;11.436;2024-02-21T12:39:53;11.60;99.90
29571;DHT22;16814;52.118;11.436;2024-02-21T12:42:19;11.70;99.90
29571;DHT22;16814;52.118;11.436;2024-02-21T12:44:44;11.70;99.90
29571;DHT22;16814;52.118;11.436;2024-02-21T12:47:10;11.60;99.90
29571;DHT22;16814;52.118;11.436;2024-02-21T12:49:35;11.60;99.90
29571;DHT22;16814;52.118;11.436;2024-02-21T12:52:01;11.50;99.90
29571;DHT22;16814;52.118;11.436;2024-02-21T12:54:27;11.60;99.90
29571;DHT22;16814;52.118;11.436;2024-02-21T12:56:52;11.50;99.90
29571;DHT22;16814;52.118;11.436;2024-02-21T12:59:18;11.60;99.90
29571;DHT22;16814;52.118;11.436;2024-02-21T13:01:43;11.60;99.90
29571;DHT22;16814;52.118;11.436;2024-02-21T13:04:09;11.70;99.90
29571;DHT22;16814;52.118;11.436;2024-02-21T13:06:34;11.80;99.90
29571;DHT22;16814;52.118;11.436;2024-02-21T13:09:02;11.90;99.90
29571;DHT22;16814;52.118;11.436;2024-02-21T13:11:29;11.80;99.90
29571;DHT22;16814;52.118;11.436;2024-02-21T13:13:56;11.80;99.90
29571;DHT22;16814;52.118;11.436;2024-02-21T13:16:21;11.90;99.90
29571;DHT22;16814;52.118;11.436;2024-02-21T13:18:47;11.80;99.90
29571;DHT22;16814;52.118;11.436;2024-02-21T13:21:13;11.80;99.90
29571;DHT22;16814;52.118;11.436;2024-02-21T13:23:40;11.90;99.90
29571;DHT22;16814;52.118;11.436;2024-02-21T13:26:05;11.90;99.90
29571;DHT22;16814;52.118;11.436;2024-02-21T13:28:31;11.90;99.90
29571;DHT22;16814;52.118;11.436;2024-02-21T13:30:56;12.10;99.90
29571;DHT22;16814;52.118;11.436;2024-02-21T13:33:22;12.10;99.90
29571;DHT22;16814;52.118;11.436;2024-02-21T13:35:48;12.10;99.90
29571;DHT22;16814;52.118;11.436;2024-02-21T13:38:13;12.20;99.90
29571;DHT22;16814;52.118;11.436;2024-02-21T13:40:39;12.20;99.90
29571;DHT22;16814;52.118;11.436;2024-02-21T13:43:05;12.10;99.90
29571;DHT22;16814;52.118;11.436;2024-02-21T13:45:30;12.20;99.90
29571;DHT22;16814;52.118;11.436;2024-02-21T13:47:57;12.10;99.90
29571;DHT22;16814;52.118;11.436;2024-02-21T13:50:27;12.10;99.90
29571;DHT22;16814;52.118;11.436;2024-02-21T13:52:54;12.10;99.90
29571;DHT22;16814;52.118;11.436;2024-02-21T13:55:20;12.10;99.90
29571;DHT22;16814;52.118;11.436;2024-02-21T13:57:47;12.10;99.90
29571;DHT22;16814;52.118;11.436;2024-02-21T14:00:13;12.20;99.90
29571;DHT22;16814;52.118;11.436;2024-02-21T14:02:39;12.30;99.90
29571;DHT22;16814;52.118;11.436;2024-02-21T14:05:05;12.30;99.90
29571;DHT22;16814;52.118;11.436;2024-02-21T14:07:31;12.20;99.90
29571;DHT22;16814;52.118;11.436;2024-02-21T14:09:58;12.20;99.90
29571;DHT22;16814;52.118;11.436;2024-02-21T14:12:24;12.30;99.90
29571;DHT22;16814;52.118;11.436;2024-02-21T14:14:49;12.10;99.90
29571;DHT22;16814;52.118;11.436;2024-02-21T14:17:15;12.00;99.90
29571;DHT22;16814;52.118;11.436;2024-02-21T14:19:41;11.90;99.90
29571;DHT22;16814;52.118;11.436;2024-02-21T14:22:07;11.80;99.90
29571;DHT22;16814;52.118;11.436;2024-02-21T14:24:32;11.90;99.90
29571;DHT22;16814;52.118;11.436;2024-02-21T14:26:58;11.90;99.90
29571;DHT22;16814;52.118;11.436;2024-02-21T14:29:25;11.80;99.90
29571;DHT22;16814;52.118;11.436;2024-02-21T14:31:50;11.70;99.90
29571;DHT22;16814;52.118;11.436;2024-02-21T14:34:16;11.70;99.90
29571;DHT22;16814;52.118;11.436;2024-02-21T14:36:41;11.60;99.90
29571;DHT22;16814;52.118;11.436;2024-02-21T14:39:07;11.70;99.90
29571;DHT22;16814;52.118;11.436;2024-02-21T14:41:33;11.70;99.90
29571;DHT22;16814;52.118;11.436;2024-02-21T14:44:00;11.50;99.90
29571;DHT22;16814;52.118;11.436;2024-02-21T14:46:27;11.50;99.90
29571;DHT22;16814;52.118;11.436;2024-02-21T14:48:55;11.40;99.90
29571;DHT22;16814;52.118;11.436;2024-02-21T14:51:21;11.30;99.90
29571;DHT22;16814;52.118;11.436;2024-02-21T14:53:47;11.20;99.90
29571;DHT22;16814;52.118;11.436;2024-02-21T14:56:13;11.10;99.90
29571;DHT22;16814;52.118;11.436;2024-02-21T14:58:40;11.10;99.90
29571;DHT22;16814;52.118;11.436;2024-02-21T15:01:07;10.90;99.90
29571;DHT22;16814;52.118;11.436;2024-02-21T15:03:32;10.90;99.90
29571;DHT22;16814;52.118;11.436;2024-02-21T15:05:58;10.90;99.90
29571;DHT22;16814;52.118;11.436;2024-02-21T15:08:24;10.90;99.90
29571;DHT22;16814;52.118;11.436;2024-02-21T15:10:49;10.90;99.90
29571;DHT22;16814;52.118;11.436;2024-02-21T15:13:16;10.80;99.90
29571;DHT22;16814;52.118;11.436;2024-02-21T15:15:41;10.80;99.90
29571;DHT22;16814;52.118;11.436;2024-02-21T15:18:07;10.70;99.90
29571;DHT22;16814;52.118;11.436;2024-02-21T15:20:32;10.70;99.90
29571;DHT22;16814;52.118;11.436;2024-02-21T15:22:58;10.80;99.90
29571;DHT22;16814;52.118;11.436;2024-02-21T15:25:24;10.70;99.90